Time;durP1;ratioP1;P1;durP2;ratioP2;P2;SDS_P1;SDS_P2;PMS_P1;PMS_P2;Temp;Humidity;BMP_temperature;BMP_pressure;BME280_temperature;BME280_humidity;BME280_pressure;Samples;Min_cycle;Max_cycle;Signal;HPM_P1;HPM_P2
2022/12/20 00:01:25;;;;;;;20.98;14.45;;;;;;;3.52;80.81;100058.28;6037849;23;20202;-82
2022/12/20 00:03:53;;;;;;;23.67;17.20;;;;;;;3.55;80.55;100059.03;6038017;23;20158;-82
2022/12/20 00:06:20;;;;;;;20.75;16.23;;;;;;;3.57;80.24;100064.22;6038227;23;20159;-82
2022/12/20 00:08:46;;;;;;;18.85;15.60;;;;;;;3.60;80.50;100064.13;6038321;23;20207;-82
2022/12/20 00:11:12;;;;;;;19.83;15.80;;;;;;;3.62;80.55;100053.66;6037366;23;20681;-83
2022/12/20 00:13:38;;;;;;;22.20;15.07;;;;;;;3.66;80.65;100048.34;6037577;23;20577;-83
2022/12/20 00:16:11;;;;;;;17.90;13.57;;;;;;;3.69;80.28;100053.47;6037806;23;20166;-83
2022/12/20 00:18:38;;;;;;;12.68;11.23;;;;;;;3.72;80.29;100047.31;6037169;23;20407;-83
2022/12/20 00:21:05;;;;;;;14.55;11.48;;;;;;;3.77;80.54;100037.66;6038402;23;20202;-83
2022/12/20 00:23:31;;;;;;;16.77;11.73;;;;;;;3.83;80.13;100041.81;6013215;23;20196;-83
2022/12/20 00:26:08;;;;;;;14.57;10.98;;;;;;;3.89;80.46;100041.63;6037964;23;20172;-83
2022/12/20 00:28:35;;;;;;;12.25;10.15;;;;;;;3.91;80.22;100032.06;6037683;23;20190;-83
2022/12/20 00:31:01;;;;;;;13.48;9.73;;;;;;;3.97;80.34;100034.50;6038078;23;20239;-82
2022/12/20 00:33:27;;;;;;;17.50;8.45;;;;;;;4.00;80.42;100031.81;6036739;23;20155;-83
2022/12/20 00:35:55;;;;;;;11.67;7.93;;;;;;;4.04;80.46;100030.78;6038328;23;20163;-83
2022/12/20 00:38:21;;;;;;;10.27;9.27;;;;;;;4.09;80.60;100030.66;6038694;23;20216;-83
2022/12/20 00:40:46;;;;;;;7.63;6.32;;;;;;;4.14;80.56;100027.03;6037663;23;20190;-83
2022/12/20 00:43:12;;;;;;;9.33;7.00;;;;;;;4.21;80.32;100025.06;6012445;23;20447;-83
2022/12/20 00:45:38;;;;;;;9.23;7.67;;;;;;;4.26;80.12;100024.94;6037207;23;20440;-83
2022/12/20 00:48:04;;;;;;;11.25;9.20;;;;;;;4.32;80.38;100017.81;6038300;23;20158;-83
2022/12/20 00:50:29;;;;;;;16.00;7.23;;;;;;;4.38;80.06;100008.97;6012531;23;20154;-83
2022/12/20 00:52:54;;;;;;;7.00;6.40;;;;;;;4.44;80.53;100017.41;6035230;23;20194;-83
2022/12/20 00:55:20;;;;;;;9.23;5.07;;;;;;;4.53;80.52;100018.84;6012175;23;20181;-83
2022/12/20 00:57:45;;;;;;;4.87;3.90;;;;;;;4.63;80.43;100014.22;6037715;23;20176;-83
2022/12/20 01:00:11;;;;;;;6.57;4.30;;;;;;;4.73;80.49;100015.63;6012709;23;20251;-83
2022/12/20 01:02:37;;;;;;;4.97;3.83;;;;;;;4.82;79.91;100017.06;6012261;23;20191;-83
2022/12/20 01:05:02;;;;;;;4.80;3.80;;;;;;;4.91;80.26;100001.13;6013064;23;20216;-83
2022/12/20 01:07:29;;;;;;;6.68;5.28;;;;;;;4.99;80.02;100004.31;6036328;23;20199;-83
2022/12/20 01:09:55;;;;;;;5.07;4.65;;;;;;;5.09;80.14;99997.03;6013093;23;20480;-82
2022/12/20 01:12:21;;;;;;;4.20;3.77;;;;;;;5.16;80.03;100002.88;6036940;23;20184;-84
2022/12/20 01:14:46;;;;;;;4.97;3.53;;;;;;;5.19;79.82;100002.78;6011439;23;20185;-83
2022/12/20 01:17:11;;;;;;;4.40;3.13;;;;;;;5.18;79.47;99985.44;6010703;23;20198;-82
2022/12/20 01:19:37;;;;;;;5.63;3.60;;;;;;;5.16;79.40;100000.28;6035354;23;20181;-83
2022/12/20 01:22:02;;;;;;;6.83;4.13;;;;;;;5.08;79.48;99997.97;6034722;23;20225;-83
2022/12/20 01:24:28;;;;;;;5.13;4.07;;;;;;;5.00;79.21;100008.63;6008705;23;20170;-83
2022/12/20 01:26:53;;;;;;;4.63;3.57;;;;;;;4.93;79.51;100008.91;6008285;23;20210;-84
2022/12/20 01:29:19;;;;;;;3.90;3.50;;;;;;;4.79;79.28;100011.97;6015048;23;20161;-83
2022/12/20 01:31:46;;;;;;;4.97;4.47;;;;;;;4.65;79.82;100010.66;6037967;23;20395;-83
2022/12/20 01:34:11;;;;;;;5.93;5.33;;;;;;;4.58;79.76;100014.34;6037029;23;20166;-83
2022/12/20 01:36:37;;;;;;;4.73;4.20;;;;;;;4.53;80.10;100011.06;6037975;23;20235;-83
2022/12/20 01:39:10;;;;;;;6.88;4.90;;;;;;;4.47;80.20;100011.25;6037558;23;20202;-82
2022/12/20 01:41:37;;;;;;;6.35;5.55;;;;;;;4.43;80.21;100005.31;6011907;23;20202;-83
2022/12/20 01:44:24;;;;;;;6.07;4.60;;;;;;;4.44;80.32;100016.56;6035431;23;20614;-83
2022/12/20 01:46:51;;;;;;;10.02;5.25;;;;;;;4.44;80.17;100008.75;6012375;23;20282;-82
2022/12/20 01:49:29;;;;;;;5.80;4.88;;;;;;;4.41;80.41;99999.31;6036643;23;20239;-83
2022/12/20 01:52:02;;;;;;;6.43;5.28;;;;;;;4.40;80.39;99996.75;6037372;23;20261;-83
2022/12/20 01:54:47;;;;;;;7.97;5.38;;;;;;;4.41;80.18;99986.31;6035436;23;20176;-83
2022/12/20 01:57:16;;;;;;;6.00;5.40;;;;;;;4.46;80.48;99988.75;6011273;23;20160;-83
2022/12/20 01:59:45;;;;;;;10.80;5.68;;;;;;;4.50;80.33;99976.50;6010101;23;20507;-82
2022/12/20 02:02:11;;;;;;;7.63;5.00;;;;;;;4.53;80.35;99989.41;6036107;23;20250;-82
2022/12/20 02:04:37;;;;;;;4.70;4.20;;;;;;;4.51;80.11;99981.66;6010924;23;20164;-83
2022/12/20 02:07:03;;;;;;;5.10;4.00;;;;;;;4.51;80.14;99975.59;6035934;23;20166;-83
2022/12/20 02:09:32;;;;;;;4.73;4.30;;;;;;;4.50;80.35;99969.53;5615707;23;5001583;-83
2022/12/20 02:12:11;;;;;;;6.30;3.72;;;;;;;4.51;80.17;99971.25;6034335;23;20994;-83
2022/12/20 02:14:55;;;;;;;4.88;4.13;;;;;;;4.52;80.38;99966.91;6036215;23;20168;-83
2022/12/20 02:17:47;;;;;;;7.13;4.40;;;;;;;4.54;80.46;99958.16;6037872;23;20261;-82
2022/12/20 02:20:47;;;;;;;6.97;5.45;;;;;;;4.58;80.35;99958.88;6036322;23;20206;-81
2022/12/20 02:23:15;;;;;;;4.95;3.97;;;;;;;4.58;80.11;99962.31;6010278;23;20202;-82
2022/12/20 02:26:04;;;;;;;4.68;3.75;;;;;;;4.58;80.21;99951.91;6009868;23;20195;-83
2022/12/20 02:29:12;;;;;;;4.93;3.83;;;;;;;4.58;80.38;99951.91;6035972;23;20371;-82
2022/12/20 02:31:42;;;;;;;6.85;4.68;;;;;;;4.57;80.16;99942.44;5995874;23;20478;-82
2022/12/20 02:34:09;;;;;;;4.82;3.10;;;;;;;4.56;80.12;99952.88;6035534;23;20603;-82
2022/12/20 02:36:35;;;;;;;6.53;4.90;;;;;;;4.52;80.09;99948.69;6012381;23;20167;-82
2022/12/20 02:39:01;;;;;;;6.37;4.57;;;;;;;4.48;80.21;99945.31;6037548;23;20252;-83
2022/12/20 02:41:36;;;;;;;4.70;4.13;;;;;;;4.49;80.14;99947.03;6012553;23;20265;-82
2022/12/20 02:46:57;;;;;;;8.18;5.43;;;;;;;4.46;80.29;99952.34;6036281;23;20336;-82
2022/12/20 02:49:28;;;;;;;5.43;4.88;;;;;;;4.46;80.23;99936.75;6012531;23;20634;-83
2022/12/20 02:51:55;;;;;;;6.57;5.75;;;;;;;4.51;80.38;99928.75;6037548;23;20195;-83
2022/12/20 02:54:21;;;;;;;6.35;5.43;;;;;;;4.52;80.53;99936.53;6036279;23;20585;-82
2022/12/20 02:57:17;;;;;;;6.90;5.00;;;;;;;4.54;80.35;99934.72;6012263;23;20227;-82
2022/12/20 03:00:08;;;;;;;7.20;6.25;;;;;;;4.56;80.48;99932.91;6007509;23;20200;-82
2022/12/20 03:05:22;;;;;;;5.32;4.35;;;;;;;4.52;80.28;99920.91;6035416;23;20650;-82
2022/12/20 03:07:48;;;;;;;6.82;3.92;;;;;;;4.56;80.39;99912.09;6012596;23;20183;-82
2022/12/20 03:10:14;;;;;;;4.47;3.90;;;;;;;4.58;80.22;99912.06;6037524;23;20378;-82
2022/12/20 03:12:40;;;;;;;7.35;3.85;;;;;;;4.58;80.52;99912.06;6012843;23;20410;-82
2022/12/20 03:15:06;;;;;;;6.00;3.70;;;;;;;4.61;80.51;99898.94;6012560;23;20265;-82
2022/12/20 03:17:32;;;;;;;5.27;3.97;;;;;;;4.63;80.76;99897.13;6011799;23;20167;-83
2022/12/20 03:19:57;;;;;;;4.87;3.57;;;;;;;4.65;80.61;99897.94;6011541;23;20191;-83
2022/12/20 03:22:22;;;;;;;5.50;3.67;;;;;;;4.64;80.54;99889.28;6037964;23;20186;-83
2022/12/20 03:24:48;;;;;;;5.50;4.27;;;;;;;4.64;80.28;99897.09;6037026;23;20157;-82
2022/12/20 03:27:14;;;;;;;4.60;3.88;;;;;;;4.66;80.24;99895.28;6012512;23;20174;-82
2022/12/20 03:29:40;;;;;;;4.73;2.90;;;;;;;4.65;80.12;99893.59;6035952;23;20161;-83
2022/12/20 03:32:05;;;;;;;2.87;2.67;;;;;;;4.66;80.14;99902.22;6009501;23;20484;-82
2022/12/20 03:34:31;;;;;;;6.40;4.40;;;;;;;4.65;80.16;99904.00;6011339;23;20446;-82
2022/12/20 03:36:56;;;;;;;5.87;4.13;;;;;;;4.66;80.51;99907.44;6035170;23;20162;-82
2022/12/20 03:39:22;;;;;;;5.20;3.33;;;;;;;4.64;80.72;99910.09;6038231;23;20186;-82
2022/12/20 03:41:49;;;;;;;3.47;3.17;;;;;;;4.60;80.33;99903.28;6037553;23;20484;-83
2022/12/20 03:44:17;;;;;;;5.20;4.07;;;;;;;4.61;80.69;99912.78;6035921;23;20205;-83
2022/12/20 03:46:42;;;;;;;9.57;5.40;;;;;;;4.61;80.47;99914.53;6037506;23;20160;-82
2022/12/20 03:49:08;;;;;;;4.30;3.50;;;;;;;4.59;80.57;99906.81;6036572;23;20196;-82
2022/12/20 03:51:41;;;;;;;6.57;5.13;;;;;;;4.59;80.45;99914.63;6012083;23;20192;-82
2022/12/20 03:54:06;;;;;;;5.50;4.50;;;;;;;4.61;80.55;99907.59;6038033;23;20175;-82
2022/12/20 03:56:50;;;;;;;4.85;4.28;;;;;;;4.64;80.65;99893.63;6047773;23;20178;-81
2022/12/20 03:59:16;;;;;;;4.70;3.80;;;;;;;4.66;80.55;99897.88;6024753;23;20246;-81
2022/12/20 04:01:42;;;;;;;7.90;4.30;;;;;;;4.69;80.53;99896.06;6024287;23;20166;-82
2022/12/20 04:04:11;;;;;;;4.47;4.07;;;;;;;4.70;80.56;99893.44;6024759;23;20399;-83
2022/12/20 04:06:36;;;;;;;6.20;4.30;;;;;;;4.73;80.17;99897.69;6004408;23;20691;-89
2022/12/20 04:09:02;;;;;;;5.70;3.93;;;;;;;4.73;80.44;99897.69;6028745;23;20419;-85
2022/12/20 04:11:33;;;;;;;5.65;3.83;;;;;;;4.73;80.22;99892.47;6052434;23;20196;-83
2022/12/20 04:14:06;;;;;;;5.03;4.53;;;;;;;4.74;80.10;99894.16;6028764;23;20170;-88
2022/12/20 04:16:32;;;;;;;4.30;3.90;;;;;;;4.74;80.39;99900.22;6028652;23;20387;-85
2022/12/20 04:18:59;;;;;;;3.55;3.00;;;;;;;4.73;80.00;99892.47;6027803;23;20264;-85
2022/12/20 04:21:30;;;;;;;4.20;3.80;;;;;;;4.71;80.21;99889.91;6028306;23;20191;-83
2022/12/20 04:23:58;;;;;;;5.55;4.20;;;;;;;4.72;80.56;99886.41;6052443;23;20146;-87
2022/12/20 04:26:30;;;;;;;4.88;4.43;;;;;;;4.73;80.33;99887.28;6053852;23;20182;-88
2022/12/20 04:28:59;;;;;;;5.63;4.32;;;;;;;4.72;80.30;99875.16;6029195;23;20157;-84
2022/12/20 04:31:25;;;;;;;5.57;3.92;;;;;;;4.70;80.13;99882.16;6028142;23;20222;-86
2022/12/20 04:33:52;;;;;;;4.88;3.55;;;;;;;4.69;80.29;99880.47;6029470;23;20166;-83
2022/12/20 04:36:19;;;;;;;6.15;5.20;;;;;;;4.68;80.62;99861.41;6028792;23;20172;-87
2022/12/20 04:38:44;;;;;;;5.70;5.03;;;;;;;4.70;80.25;99859.59;6052507;23;20372;-86
2022/12/20 04:41:20;;;;;;;5.90;4.60;;;;;;;4.73;80.25;99864.69;6050597;23;20443;-84
2022/12/20 04:43:50;;;;;;;11.18;4.80;;;;;;;4.75;80.39;99862.03;6028285;23;20194;-88
2022/12/20 04:46:16;;;;;;;6.13;5.20;;;;;;;4.79;80.35;99876.63;6029374;23;20150;-85
2022/12/20 04:48:42;;;;;;;4.32;3.90;;;;;;;4.78;80.20;99869.72;6028185;23;20160;-85
2022/12/20 04:51:08;;;;;;;4.67;3.93;;;;;;;4.77;80.14;99870.63;6028336;23;20192;-85
2022/12/20 04:53:48;;;;;;;4.90;4.15;;;;;;;4.77;80.07;99858.47;6051008;23;20231;-84
2022/12/20 04:56:28;;;;;;;6.05;4.57;;;;;;;4.79;80.01;99864.47;6028429;23;20451;-89
2022/12/20 04:58:57;;;;;;;6.50;4.25;;;;;;;4.79;80.04;99861.88;6027212;23;20181;-86
2022/12/20 05:01:24;;;;;;;5.55;4.20;;;;;;;4.78;79.94;99862.78;6027356;23;20181;-82
2022/12/20 05:03:51;;;;;;;5.15;4.70;;;;;;;4.78;80.13;99856.69;6028116;23;20173;-84
2022/12/20 05:06:17;;;;;;;5.33;3.63;;;;;;;4.78;80.15;99854.09;6027208;23;20166;-88
2022/12/20 05:08:43;;;;;;;5.80;4.20;;;;;;;4.78;80.08;99851.50;6052875;23;20395;-88
2022/12/20 05:11:08;;;;;;;5.10;4.60;;;;;;;4.76;80.17;99851.56;6051371;23;20185;-82
2022/12/20 05:13:35;;;;;;;6.97;4.57;;;;;;;4.76;80.34;99845.53;6027797;23;20484;-85
2022/12/20 05:16:00;;;;;;;4.50;4.10;;;;;;;4.74;80.07;99835.16;6027660;23;20176;-84
2022/12/20 05:18:29;;;;;;;4.80;4.05;;;;;;;4.75;80.27;99836.00;6053201;23;20161;-86
2022/12/20 05:26:45;;;;;;;5.15;4.68;;;;;;;4.70;80.20;99841.38;6051314;23;20170;-88
2022/12/20 05:29:11;;;;;;;6.40;5.70;;;;;;;4.69;80.11;99836.22;6027727;23;20167;-85
2022/12/20 05:31:36;;;;;;;5.63;5.10;;;;;;;4.69;80.36;99842.28;6027633;23;20196;-84
2022/12/20 05:34:02;;;;;;;13.90;5.50;;;;;;;4.69;80.34;99836.22;6027767;23;20222;-84
2022/12/20 05:36:31;;;;;;;6.15;5.40;;;;;;;4.71;80.32;99843.06;6050003;23;20390;-84
2022/12/20 05:38:59;;;;;;;6.72;5.70;;;;;;;4.73;80.35;99851.69;6027440;23;20189;-85
2022/12/20 05:41:24;;;;;;;6.25;5.72;;;;;;;4.72;80.26;99833.50;6028297;23;20186;-87
2022/12/20 05:43:51;;;;;;;9.27;8.25;;;;;;;4.72;80.48;99831.75;6027598;23;20399;-85
2022/12/20 05:46:16;;;;;;;11.07;7.90;;;;;;;4.72;80.40;99836.97;6025302;23;20181;-82
2022/12/20 05:49:02;;;;;;;9.13;5.43;;;;;;;4.74;80.39;99845.56;6050716;23;20171;-83
2022/12/20 05:51:28;;;;;;;9.93;6.38;;;;;;;4.72;80.67;99836.97;6051824;23;20254;-87
2022/12/20 05:54:17;;;;;;;7.50;6.80;;;;;;;4.74;80.46;99836.91;6042771;23;20177;-88
2022/12/20 05:56:52;;;;;;;6.85;5.72;;;;;;;4.73;80.57;99835.22;6025864;23;20163;-83
2022/12/20 05:59:22;;;;;;;6.50;6.00;;;;;;;4.74;80.65;99826.50;6025987;23;20231;-83
2022/12/20 06:01:47;;;;;;;6.60;5.93;;;;;;;4.74;80.26;99839.53;6049950;23;20314;-86
2022/12/20 06:04:13;;;;;;;7.70;6.50;;;;;;;4.72;80.76;99831.75;6025947;23;20179;-87
2022/12/20 06:06:39;;;;;;;6.90;6.32;;;;;;;4.74;80.68;99823.91;6025564;23;20188;-86
2022/12/20 06:09:06;;;;;;;9.45;8.65;;;;;;;4.76;80.61;99835.13;6024959;23;20182;-85
2022/12/20 06:11:46;;;;;;;9.90;8.90;;;;;;;4.78;80.34;99825.47;6049768;23;20197;-87
2022/12/20 06:14:13;;;;;;;10.75;9.65;;;;;;;4.79;80.66;99832.41;6048900;23;20585;-82
2022/12/20 06:16:44;;;;;;;12.05;10.80;;;;;;;4.82;80.82;99825.31;6022513;23;20189;-87
2022/12/20 06:19:10;;;;;;;12.30;11.07;;;;;;;4.84;80.47;99817.47;6021686;23;20251;-81
2022/12/20 06:21:36;;;;;;;10.38;9.43;;;;;;;4.85;80.64;99820.00;6021086;23;20205;-87
2022/12/20 06:24:02;;;;;;;11.83;10.37;;;;;;;4.86;80.68;99819.13;6019580;23;20440;-84
2022/12/20 06:26:34;;;;;;;13.15;10.55;;;;;;;4.89;80.58;99836.38;6018398;23;20188;-84
2022/12/20 06:29:02;;;;;;;10.05;9.07;;;;;;;4.89;80.53;99841.56;6014183;23;20200;-84
2022/12/20 06:31:35;;;;;;;13.43;9.20;;;;;;;4.90;80.55;99845.88;6008080;23;20195;-82
2022/12/20 06:34:01;;;;;;;12.00;10.30;;;;;;;4.92;80.38;99849.28;6006698;23;20420;-81
2022/12/20 06:36:31;;;;;;;10.32;9.15;;;;;;;4.93;80.74;99840.53;6027664;23;20176;-85
2022/12/20 06:38:56;;;;;;;37.83;25.20;;;;;;;4.93;80.66;99835.34;6050043;23;20196;-85
2022/12/20 06:41:22;;;;;;;18.23;13.90;;;;;;;4.96;80.59;99831.78;6026028;23;20211;-85
2022/12/20 06:43:48;;;;;;;18.43;13.13;;;;;;;4.95;80.48;99836.13;6025389;23;20249;-87
2022/12/20 06:46:13;;;;;;;23.20;15.03;;;;;;;4.95;80.79;99835.28;6048859;23;20179;-88
2022/12/20 06:48:39;;;;;;;18.30;14.43;;;;;;;4.97;80.61;99830.84;6025631;23;20240;-86
2022/12/20 06:51:06;;;;;;;16.15;13.23;;;;;;;4.98;80.51;99833.41;6025344;23;20204;-84
2022/12/20 06:53:31;;;;;;;16.90;13.47;;;;;;;5.02;80.71;99831.53;6050677;23;20201;-85
2022/12/20 06:55:57;;;;;;;16.27;13.38;;;;;;;5.04;80.55;99841.00;6049612;23;20183;-85
2022/12/20 06:58:23;;;;;;;16.30;12.57;;;;;;;5.04;80.62;99835.78;6025509;23;20237;-82
2022/12/20 07:00:48;;;;;;;17.50;12.87;;;;;;;5.07;80.29;99829.63;6050505;23;20193;-87
2022/12/20 07:03:14;;;;;;;14.43;9.33;;;;;;;5.05;80.22;99827.09;6050817;23;20193;-83
2022/12/20 07:05:40;;;;;;;15.63;11.27;;;;;;;5.05;80.59;99827.09;6051639;23;20184;-81
2022/12/20 07:08:05;;;;;;;14.03;10.30;;;;;;;5.06;80.54;99839.19;6050597;23;20169;-89
2022/12/20 07:10:36;;;;;;;12.43;8.07;;;;;;;5.06;80.37;99844.38;6051834;23;20402;-88
2022/12/20 07:13:02;;;;;;;13.32;9.65;;;;;;;5.07;80.73;99829.63;6049868;23;20425;-84
2022/12/20 07:15:27;;;;;;;13.77;8.73;;;;;;;5.09;80.36;99833.84;6051471;23;20179;-84
2022/12/20 07:17:53;;;;;;;15.17;8.40;;;;;;;5.10;80.27;99819.06;6050191;23;20428;-85
2022/12/20 07:20:18;;;;;;;14.43;9.40;;;;;;;5.12;80.30;99825.09;6051813;23;20212;-85
2022/12/20 07:22:46;;;;;;;14.37;7.77;;;;;;;5.12;80.58;99819.88;6053368;23;20180;-83
2022/12/20 07:25:12;;;;;;;10.55;8.75;;;;;;;5.12;80.17;99819.03;6053343;23;20245;-89
2022/12/20 07:27:38;;;;;;;13.37;9.80;;;;;;;5.13;80.27;99813.78;6053429;23;20190;-85
2022/12/20 07:30:04;;;;;;;10.93;8.30;;;;;;;5.15;80.42;99811.09;6053192;23;20170;-85
2022/12/20 07:32:30;;;;;;;12.38;8.35;;;;;;;5.12;80.74;99813.81;6053028;23;20481;-87
2022/12/20 07:34:55;;;;;;;11.03;8.53;;;;;;;5.15;80.79;99821.53;6053484;23;20179;-84
2022/12/20 07:37:20;;;;;;;12.80;8.97;;;;;;;5.15;80.28;99831.94;6053512;23;20165;-82
2022/12/20 07:39:46;;;;;;;11.30;9.30;;;;;;;5.17;80.46;99822.31;6052817;23;20199;-84
2022/12/20 07:42:11;;;;;;;16.73;9.63;;;;;;;5.21;80.04;99822.16;6028695;23;20238;-84
2022/12/20 07:44:42;;;;;;;9.82;7.60;;;;;;;5.25;80.44;99802.03;6052596;23;20263;-88
2022/12/20 07:47:08;;;;;;;10.63;8.68;;;;;;;5.30;80.52;99795.75;6053216;23;20422;-87
2022/12/20 07:49:34;;;;;;;11.33;8.10;;;;;;;5.35;80.30;99785.16;6052841;23;20169;-83
2022/12/20 07:52:03;;;;;;;20.63;13.17;;;;;;;5.36;80.47;99781.63;6052847;23;20449;-85
2022/12/20 07:54:39;;;;;;;19.27;11.43;;;;;;;5.41;80.36;99782.28;6052969;23;20207;-85
2022/12/20 07:57:12;;;;;;;21.00;10.73;;;;;;;5.45;80.17;99790.81;6052150;23;20205;-83
2022/12/20 08:02:16;;;;;;;12.48;8.82;;;;;;;5.50;79.97;99787.13;6091133;23;20192;-80
2022/12/20 08:04:42;;;;;;;16.98;9.25;;;;;;;5.52;80.11;99795.75;6092659;23;20174;-83
2022/12/20 08:07:09;;;;;;;12.52;7.45;;;;;;;5.54;79.96;99798.28;6093615;23;20218;-82
2022/12/20 08:09:38;;;;;;;11.30;8.75;;;;;;;5.54;79.99;99791.31;6093992;23;20172;-80
2022/12/20 08:12:04;;;;;;;21.67;9.27;;;;;;;5.54;79.88;99796.53;6068190;23;20246;-80
2022/12/20 08:14:30;;;;;;;11.25;9.27;;;;;;;5.55;80.06;99803.44;6099651;23;20635;-82
2022/12/20 08:16:56;;;;;;;10.77;9.20;;;;;;;5.55;80.21;99793.00;6102515;23;20185;-81
2022/12/20 08:19:21;;;;;;;15.83;10.00;;;;;;;5.55;80.17;99813.00;6100477;23;20451;-82
2022/12/20 08:21:46;;;;;;;12.67;8.70;;;;;;;5.58;80.01;99796.41;6099568;23;20192;-81
2022/12/20 08:24:12;;;;;;;15.03;12.03;;;;;;;5.60;80.40;99797.19;6098851;23;20178;-82
2022/12/20 08:26:41;;;;;;;30.33;18.67;;;;;;;5.67;80.14;99783.00;6099953;23;20175;-81
2022/12/20 08:29:07;;;;;;;42.35;24.27;;;;;;;5.72;80.37;99778.44;6099665;23;20541;-82
2022/12/20 08:31:36;;;;;;;49.78;27.15;;;;;;;5.80;80.00;99784.19;6100125;23;20177;-82
2022/12/20 08:34:02;;;;;;;57.25;32.38;;;;;;;5.89;79.97;99768.19;6099343;23;20404;-82
2022/12/20 08:36:27;;;;;;;35.13;18.67;;;;;;;6.01;79.99;99772.06;6100917;23;20190;-81
2022/12/20 08:38:53;;;;;;;18.13;12.07;;;;;;;6.16;79.95;99766.19;6099593;23;20278;-81
2022/12/20 08:41:18;;;;;;;19.57;12.90;;;;;;;6.32;79.50;99769.00;6099298;23;20200;-82
2022/12/20 08:43:44;;;;;;;23.53;13.17;;;;;;;6.49;79.29;99772.63;6096417;23;20183;-82
2022/12/20 08:46:11;;;;;;;8.57;6.87;;;;;;;6.68;78.96;99778.72;6096092;23;20246;-81
2022/12/20 08:48:36;;;;;;;6.35;5.30;;;;;;;6.87;78.54;99758.69;6097551;23;20161;-81
2022/12/20 08:51:04;;;;;;;7.57;6.77;;;;;;;7.07;78.21;99757.78;6089055;23;20244;-81
2022/12/20 08:53:31;;;;;;;7.55;5.60;;;;;;;7.25;78.01;99749.97;6098090;23;20204;-81
2022/12/20 08:56:14;;;;;;;7.57;5.40;;;;;;;7.41;77.65;99752.69;6092483;23;20170;-81
2022/12/20 08:58:41;;;;;;;6.47;5.88;;;;;;;7.55;77.33;99750.25;6065982;23;20184;-81
2022/12/20 09:01:10;;;;;;;15.43;6.80;;;;;;;7.75;77.08;99750.13;6108066;23;20614;-81
2022/12/20 09:03:36;;;;;;;9.38;5.93;;;;;;;7.90;76.57;99755.50;6124803;23;20212;-81
2022/12/20 09:06:07;;;;;;;5.70;4.97;;;;;;;8.02;76.12;99762.75;6122194;23;20428;-81
2022/12/20 09:08:33;;;;;;;6.63;5.65;;;;;;;8.09;75.91;99756.25;6122551;23;20801;-82
2022/12/20 09:11:04;;;;;;;11.63;7.00;;;;;;;8.15;75.79;99752.47;6122423;23;20519;-82
2022/12/20 09:13:29;;;;;;;8.95;6.82;;;;;;;8.18;75.49;99747.09;6097198;23;20177;-81
2022/12/20 09:15:55;;;;;;;9.00;6.60;;;;;;;8.20;75.67;99743.47;6121224;23;20195;-81
2022/12/20 09:18:20;;;;;;;6.47;5.87;;;;;;;8.24;75.74;99744.19;6120520;23;20166;-81
2022/12/20 09:20:46;;;;;;;8.67;7.17;;;;;;;8.26;75.61;99741.47;6095447;23;20221;-82
2022/12/20 09:23:11;;;;;;;9.93;6.50;;;;;;;8.28;75.63;99734.38;6126301;23;20597;-82
2022/12/20 09:25:37;;;;;;;9.63;8.07;;;;;;;8.33;75.55;99733.22;6122926;23;20165;-81
2022/12/20 09:28:03;;;;;;;11.60;8.53;;;;;;;8.43;75.41;99740.63;6124471;23;20162;-81
2022/12/20 09:30:28;;;;;;;10.00;8.15;;;;;;;8.49;75.40;99737.69;6123952;23;20157;-82
2022/12/20 09:32:55;;;;;;;13.07;7.30;;;;;;;8.54;75.24;99738.28;6124376;23;20168;-82
2022/12/20 09:35:21;;;;;;;7.30;5.95;;;;;;;8.55;75.11;99737.34;6123700;23;20253;-82
2022/12/20 09:37:46;;;;;;;12.17;7.97;;;;;;;8.52;75.33;99742.75;6122942;23;20509;-81
2022/12/20 09:40:20;;;;;;;7.63;6.87;;;;;;;8.52;75.41;99743.59;6121729;23;20404;-81
2022/12/20 09:42:48;;;;;;;9.20;7.35;;;;;;;8.58;75.36;99742.44;6121395;23;20257;-82
2022/12/20 09:45:26;;;;;;;9.93;6.95;;;;;;;8.63;75.14;99738.63;6121341;23;20174;-81
2022/12/20 09:47:52;;;;;;;7.78;6.95;;;;;;;8.65;75.09;99743.81;6104901;23;20654;-82
2022/12/20 09:50:21;;;;;;;12.77;10.00;;;;;;;8.61;75.18;99737.91;6121294;23;20501;-82
2022/12/20 09:53:11;;;;;;;8.88;8.00;;;;;;;8.61;75.35;99737.91;6120901;23;20402;-81
2022/12/20 09:55:46;;;;;;;11.40;7.70;;;;;;;8.59;75.30;99742.34;6121185;23;20172;-82
2022/12/20 09:58:34;;;;;;;8.95;7.50;;;;;;;8.59;75.47;99723.19;6120636;23;20181;-82
2022/12/20 10:01:14;;;;;;;13.90;9.75;;;;;;;8.56;75.40;99739.03;6094462;23;20337;-82
2022/12/20 10:03:40;;;;;;;12.68;9.85;;;;;;;8.49;75.34;99735.06;6095724;23;20178;-81
2022/12/20 10:06:21;;;;;;;11.03;6.13;;;;;;;8.44;75.75;99737.09;6120268;23;20249;-82
2022/12/20 10:08:57;;;;;;;10.45;8.38;;;;;;;8.41;75.98;99740.72;6120311;23;20197;-82
2022/12/20 10:11:49;;;;;;;9.80;8.48;;;;;;;8.41;76.05;99738.94;6119797;23;20256;-82
2022/12/20 10:14:34;;;;;;;8.95;7.75;;;;;;;8.42;75.99;99739.78;6121094;23;20208;-82
2022/12/20 10:17:10;;;;;;;9.60;7.78;;;;;;;8.44;76.10;99729.22;6120475;23;20378;-82
2022/12/20 10:19:57;;;;;;;9.15;7.85;;;;;;;8.46;75.98;99725.59;6120804;23;20199;-82
2022/12/20 10:22:41;;;;;;;8.68;7.82;;;;;;;8.50;75.86;99723.66;6120326;23;20227;-82
2022/12/20 10:25:18;;;;;;;11.88;8.40;;;;;;;8.50;75.86;99728.91;6120801;23;20186;-82
2022/12/20 10:27:45;;;;;;;15.80;9.38;;;;;;;8.51;76.00;99726.22;6121580;23;20274;-82
2022/12/20 10:30:20;;;;;;;20.27;14.85;;;;;;;8.52;75.97;99722.66;6122513;23;20191;-81
2022/12/20 10:32:47;;;;;;;29.80;21.15;;;;;;;8.51;76.14;99720.97;6121697;23;20182;-82
2022/12/20 10:35:13;;;;;;;30.73;25.63;;;;;;;8.58;76.17;99706.59;6119942;23;20478;-81
2022/12/20 10:37:55;;;;;;;32.57;24.20;;;;;;;8.62;76.36;99709.94;6121696;23;20182;-82
2022/12/20 10:40:35;;;;;;;23.45;19.88;;;;;;;8.67;76.35;99707.03;6121613;23;20203;-81
2022/12/20 10:43:02;;;;;;;17.75;14.27;;;;;;;8.70;76.32;99712.97;6120659;23;20179;-81
2022/12/20 10:45:32;;;;;;;15.73;13.05;;;;;;;8.76;76.11;99709.19;6121305;23;20203;-82
2022/12/20 10:48:00;;;;;;;14.52;12.68;;;;;;;8.81;76.06;99699.31;6121454;23;20190;-82
2022/12/20 10:50:25;;;;;;;19.55;13.75;;;;;;;8.87;75.71;99691.09;6121572;23;20176;-81
2022/12/20 10:53:16;;;;;;;16.90;12.27;;;;;;;8.93;75.56;99688.13;6095098;23;20185;-82
2022/12/20 10:55:42;;;;;;;16.73;12.05;;;;;;;8.99;75.42;99669.47;6121819;23;20266;-81
2022/12/20 10:58:20;;;;;;;28.83;22.27;;;;;;;9.06;75.20;99659.47;6123604;23;20212;-82
2022/12/20 11:00:48;;;;;;;14.73;11.50;;;;;;;9.14;74.97;99646.78;6097303;23;20204;-82
2022/12/20 11:03:18;;;;;;;12.00;9.15;;;;;;;9.21;74.93;99644.66;6122542;23;20698;-82
2022/12/20 11:05:56;;;;;;;8.20;7.00;;;;;;;9.32;74.70;99644.88;6123913;23;20172;-82
2022/12/20 11:08:23;;;;;;;17.45;12.63;;;;;;;9.44;74.67;99641.53;6123453;23;20240;-82
2022/12/20 11:10:49;;;;;;;16.45;11.73;;;;;;;9.57;74.08;99644.28;6123402;23;20831;-82
2022/12/20 11:13:24;;;;;;;8.18;6.75;;;;;;;9.69;73.86;99638.34;6122415;23;20231;-82
2022/12/20 11:15:55;;;;;;;10.73;9.10;;;;;;;9.82;74.07;99627.94;6122372;23;20156;-82
2022/12/20 11:18:32;;;;;;;8.20;7.40;;;;;;;9.95;73.48;99623.63;6123100;23;20552;-82
2022/12/20 11:21:15;;;;;;;17.73;12.88;;;;;;;10.09;73.35;99627.19;6123279;23;20193;-82
2022/12/20 11:23:48;;;;;;;15.35;11.70;;;;;;;10.19;73.02;99633.56;6122426;23;20295;-82
2022/12/20 11:26:55;;;;;;;13.75;12.30;;;;;;;10.28;73.12;99637.44;6122716;23;20746;-82
2022/12/20 11:29:41;;;;;;;12.55;8.95;;;;;;;10.37;72.98;99639.50;6089362;23;20168;-82
2022/12/20 11:32:25;;;;;;;12.57;9.20;;;;;;;10.44;72.80;99640.78;6123168;23;20238;-82
2022/12/20 11:35:20;;;;;;;12.70;6.88;;;;;;;10.45;72.52;99644.25;6121128;23;20158;-82
2022/12/20 11:37:56;;;;;;;10.25;7.95;;;;;;;10.44;72.69;99635.53;6108174;23;20167;-84
2022/12/20 11:40:32;;;;;;;9.30;8.02;;;;;;;10.49;72.43;99627.38;6120037;23;20199;-83
2022/12/20 11:43:04;;;;;;;8.18;7.35;;;;;;;10.47;72.54;99621.38;6121379;23;20163;-82
2022/12/20 11:45:42;;;;;;;9.02;7.15;;;;;;;10.45;72.45;99607.50;6122457;23;20164;-81
2022/12/20 11:48:35;;;;;;;14.82;7.68;;;;;;;10.43;72.64;99593.66;6120856;23;20155;-82
2022/12/20 11:51:04;;;;;;;8.38;7.55;;;;;;;10.40;72.71;99603.41;6120782;23;20238;-82
2022/12/20 11:53:54;;;;;;;11.68;8.27;;;;;;;10.41;72.51;99589.31;6121668;23;20156;-82
2022/12/20 11:56:43;;;;;;;9.00;8.00;;;;;;;10.40;72.62;99581.56;6121096;23;20496;-82
2022/12/20 11:59:30;;;;;;;7.78;6.53;;;;;;;10.38;72.84;99573.75;6120298;23;20510;-81
2022/12/20 12:02:08;;;;;;;11.10;8.88;;;;;;;10.41;72.90;99578.81;6121445;23;20210;-82